Time;durP1;ratioP1;P1;durP2;ratioP2;P2;SDS_P1;SDS_P2;PMS_P1;PMS_P2;Temp;Humidity;BMP_temperature;BMP_pressure;BME280_temperature;BME280_humidity;BME280_pressure;Samples;Min_cycle;Max_cycle;Signal;HPM_P1;HPM_P2
2022/06/22 00:01:18;;;;;;;9.30;7.35;;;25.00;99.90;;;;;;5025501;28;20040;-79
2022/06/22 00:04:04;;;;;;;13.30;6.60;;;25.00;99.90;;;;;;5031020;28;20056;-80
2022/06/22 00:07:03;;;;;;;11.60;6.90;;;25.10;99.90;;;;;;5021630;28;20049;-75
2022/06/22 00:09:55;;;;;;;11.13;6.90;;;25.10;99.90;;;;;;5021725;28;20564;-79
2022/06/22 00:12:42;;;;;;;12.10;7.18;;;25.00;99.90;;;;;;5021556;28;20044;-77
2022/06/22 00:15:46;;;;;;;10.10;7.20;;;25.00;99.90;;;;;;5021537;28;20044;-77
2022/06/22 00:18:45;;;;;;;10.35;7.18;;;24.90;99.90;;;;;;5026062;28;20044;-76
2022/06/22 00:21:36;;;;;;;10.27;7.05;;;24.80;99.90;;;;;;5026261;28;20040;-79
2022/06/22 00:24:24;;;;;;;13.10;7.22;;;24.80;99.90;;;;;;5021801;28;20045;-78
2022/06/22 00:27:40;;;;;;;9.82;6.65;;;24.80;99.90;;;;;;5022075;28;20056;-77
2022/06/22 00:30:30;;;;;;;10.73;7.22;;;24.20;99.90;;;;;;5020909;28;20056;-76
2022/06/22 00:33:23;;;;;;;13.05;7.88;;;24.10;99.90;;;;;;5009816;28;20061;-76
2022/06/22 00:36:18;;;;;;;13.70;8.00;;;23.80;99.90;;;;;;5026718;28;20148;-75
2022/06/22 00:39:31;;;;;;;14.10;7.30;;;23.90;99.90;;;;;;5030988;28;20052;-77
2022/06/22 00:42:25;;;;;;;18.52;11.75;;;24.30;99.90;;;;;;5025731;28;20043;-79
2022/06/22 00:45:25;;;;;;;51.33;34.95;;;24.40;99.90;;;;;;5025024;28;20179;-77
2022/06/22 00:48:26;;;;;;;55.95;40.70;;;24.40;99.90;;;;;;5023947;28;20065;-78
2022/06/22 00:51:19;;;;;;;16.85;12.32;;;24.40;99.90;;;;;;5025416;28;20041;-78
2022/06/22 00:54:15;;;;;;;15.85;10.93;;;24.30;99.90;;;;;;5020067;28;20041;-78
2022/06/22 00:57:19;;;;;;;15.95;10.35;;;24.00;99.90;;;;;;5032163;28;20048;-77
2022/06/22 01:00:14;;;;;;;14.57;10.23;;;24.10;99.90;;;;;;5032692;28;20393;-77
2022/06/22 01:03:14;;;;;;;15.93;9.77;;;24.10;99.90;;;;;;5028000;28;20045;-80
2022/06/22 01:06:08;;;;;;;13.98;8.90;;;23.90;99.90;;;;;;5024438;28;20079;-76
2022/06/22 01:09:13;;;;;;;12.43;9.20;;;23.90;99.90;;;;;;5023918;28;20128;-77
2022/06/22 01:12:25;;;;;;;15.10;9.75;;;24.10;99.90;;;;;;5023722;28;20139;-77
2022/06/22 01:15:40;;;;;;;11.15;8.40;;;24.10;99.90;;;;;;5012203;28;20843;-76
2022/06/22 01:18:30;;;;;;;14.23;8.82;;;23.80;99.90;;;;;;5023962;28;20044;-77
2022/06/22 01:21:55;;;;;;;14.50;7.95;;;23.90;99.90;;;;;;5028471;28;20056;-77
2022/06/22 01:25:05;;;;;;;11.95;7.88;;;23.90;99.90;;;;;;5003124;28;20148;-78
2022/06/22 01:27:51;;;;;;;54.38;39.58;;;23.80;99.90;;;;;;5024234;28;20385;-76
2022/06/22 01:30:41;;;;;;;57.75;40.72;;;23.60;99.90;;;;;;5025593;28;20040;-76
2022/06/22 01:33:33;;;;;;;;;;;23.60;99.90;;;;;;5014948;28;20052;-76
2022/06/22 01:36:31;;;;;;;14.55;10.02;;;23.50;99.90;;;;;;5013619;28;20051;-76
2022/06/22 01:39:17;;;;;;;15.32;9.32;;;23.40;99.90;;;;;;5013315;28;20048;-78
2022/06/22 01:42:12;;;;;;;17.10;9.38;;;23.30;99.90;;;;;;5013251;28;20147;-76
2022/06/22 01:45:06;;;;;;;13.38;8.27;;;23.30;99.90;;;;;;4998605;28;20056;-75
2022/06/22 01:48:05;;;;;;;13.07;9.48;;;23.30;99.90;;;;;;5014626;28;20057;-77
2022/06/22 01:51:05;;;;;;;12.25;7.32;;;23.10;99.90;;;;;;5013574;28;20392;-80
2022/06/22 01:54:04;;;;;;;11.10;8.47;;;23.00;99.90;;;;;;5013079;28;20088;-80
2022/06/22 01:56:50;;;;;;;13.98;8.50;;;23.00;99.90;;;;;;5012885;28;20120;-76
2022/06/22 01:59:43;;;;;;;13.07;8.45;;;23.00;99.90;;;;;;5012718;28;20053;-76
2022/06/22 02:02:42;;;;;;;12.00;8.07;;;23.10;99.90;;;;;;5013029;28;20044;-82
2022/06/22 02:05:45;;;;;;;12.20;8.65;;;23.10;99.90;;;;;;5012607;28;20069;-79
2022/06/22 02:08:36;;;;;;;17.70;12.85;;;23.00;99.90;;;;;;5012824;28;20049;-77
2022/06/22 02:11:26;;;;;;;14.15;8.48;;;23.00;99.90;;;;;;5012253;28;20061;-80
2022/06/22 02:14:31;;;;;;;15.82;8.88;;;23.10;99.90;;;;;;5012665;28;20505;-78
2022/06/22 02:17:23;;;;;;;14.82;8.57;;;22.90;99.90;;;;;;4997764;28;20044;-80
2022/06/22 02:20:19;;;;;;;14.27;9.55;;;22.90;99.90;;;;;;5013013;28;20072;-80
2022/06/22 02:23:30;;;;;;;17.75;8.15;;;23.00;99.90;;;;;;5034643;28;20068;-79
2022/06/22 02:26:47;;;;;;;13.40;8.50;;;23.30;99.90;;;;;;5052580;28;20063;-79
2022/06/22 02:29:49;;;;;;;13.10;8.25;;;23.30;99.90;;;;;;5051750;28;20115;-79
2022/06/22 02:32:39;;;;;;;11.25;7.97;;;23.40;99.90;;;;;;5052120;28;20388;-77
2022/06/22 02:35:25;;;;;;;11.35;7.85;;;23.40;99.90;;;;;;5052027;28;20495;-76
2022/06/22 02:38:13;;;;;;;12.57;8.00;;;23.30;99.90;;;;;;5052280;28;20090;-79
2022/06/22 02:47:23;;;;;;;12.77;8.20;;;23.10;99.90;;;;;;5051934;28;20514;-76
2022/06/22 02:50:32;;;;;;;13.70;8.27;;;23.10;99.90;;;;;;5051047;28;20047;-76
2022/06/22 02:53:28;;;;;;;10.10;8.30;;;23.10;99.90;;;;;;5051890;28;20067;-76
2022/06/22 02:56:18;;;;;;;11.52;8.57;;;23.00;99.90;;;;;;5051661;28;20043;-76
2022/06/22 02:59:07;;;;;;;12.27;8.27;;;23.10;99.90;;;;;;5051647;28;20055;-81
2022/06/22 03:01:53;;;;;;;12.63;8.45;;;23.00;99.90;;;;;;5051643;28;20570;-79
2022/06/22 03:04:41;;;;;;;11.63;8.50;;;23.10;99.90;;;;;;5051893;28;20393;-77
2022/06/22 03:07:28;;;;;;;11.68;8.93;;;22.90;99.90;;;;;;5051747;28;20171;-81
2022/06/22 03:10:33;;;;;;;11.82;8.63;;;22.90;99.90;;;;;;5036174;28;20051;-83
2022/06/22 03:13:32;;;;;;;12.95;8.85;;;22.80;99.90;;;;;;5051901;28;20129;-80
2022/06/22 03:16:33;;;;;;;17.60;9.02;;;22.90;99.90;;;;;;5051482;28;20159;-82
2022/06/22 03:23:27;;;;;;;13.57;8.80;;;22.90;99.90;;;;;;4951577;29;20070;-79
2022/06/22 03:26:18;;;;;;;12.90;8.60;;;23.00;99.90;;;;;;4969409;28;20491;-78
2022/06/22 03:29:24;;;;;;;18.33;8.77;;;22.90;99.90;;;;;;5031356;28;20042;-77
2022/06/22 03:32:19;;;;;;;12.52;8.32;;;22.90;99.90;;;;;;5031022;28;20397;-78
2022/06/22 03:35:11;;;;;;;12.63;9.30;;;22.90;99.90;;;;;;5031328;28;20127;-79
2022/06/22 03:38:08;;;;;;;12.95;8.55;;;22.80;99.90;;;;;;5031500;28;20123;-78
2022/06/22 03:40:58;;;;;;;14.20;9.07;;;22.90;99.90;;;;;;5031284;28;20096;-79
2022/06/22 03:44:02;;;;;;;14.95;8.55;;;23.00;99.90;;;;;;5016612;28;20049;-77
2022/06/22 03:46:56;;;;;;;10.77;8.38;;;23.00;99.90;;;;;;5016393;28;20088;-77
2022/06/22 03:50:08;;;;;;;15.43;9.23;;;23.10;99.90;;;;;;5031142;28;20044;-77
2022/06/22 03:56:47;;;;;;;12.82;7.95;;;23.00;99.90;;;;;;5031115;28;20140;-81
2022/06/22 03:59:39;;;;;;;10.23;8.23;;;23.10;99.90;;;;;;5030936;28;20096;-80
2022/06/22 04:02:26;;;;;;;13.85;8.70;;;23.00;99.90;;;;;;5032399;28;20044;-78
2022/06/22 04:05:17;;;;;;;16.73;8.63;;;22.30;99.90;;;;;;5020487;28;20048;-78
2022/06/22 04:08:03;;;;;;;17.45;8.57;;;22.60;99.90;;;;;;5034825;28;20049;-79
2022/06/22 04:11:15;;;;;;;12.55;8.50;;;22.90;99.90;;;;;;5034738;28;20048;-81
2022/06/22 04:14:15;;;;;;;13.68;9.15;;;23.00;99.90;;;;;;5035000;28;20134;-78
2022/06/22 04:17:34;;;;;;;13.65;8.50;;;23.20;99.90;;;;;;5034770;28;20130;-79
2022/06/22 04:20:52;;;;;;;15.52;9.75;;;23.30;99.90;;;;;;4998491;28;20373;-81
2022/06/22 04:23:42;;;;;;;15.40;8.95;;;23.30;99.90;;;;;;5054737;28;20396;-77
2022/06/22 04:26:36;;;;;;;16.75;9.07;;;22.30;99.90;;;;;;5054393;28;20183;-79
2022/06/22 04:29:38;;;;;;;16.65;8.43;;;22.30;99.90;;;;;;5054389;28;20516;-79
2022/06/22 04:32:38;;;;;;;16.02;9.15;;;22.50;99.90;;;;;;5054567;28;20052;-79
2022/06/22 04:35:33;;;;;;;20.05;10.98;;;22.80;99.90;;;;;;5054442;28;20122;-78
2022/06/22 04:38:35;;;;;;;20.08;10.35;;;23.20;99.90;;;;;;5054302;28;20052;-78
2022/06/22 04:41:38;;;;;;;20.92;11.38;;;23.30;99.90;;;;;;5053954;28;20059;-78
2022/06/22 04:44:28;;;;;;;19.05;10.80;;;23.50;99.90;;;;;;5053720;28;20056;-79
2022/06/22 04:47:25;;;;;;;15.63;10.77;;;23.60;99.90;;;;;;5054265;28;20051;-78
2022/06/22 04:50:13;;;;;;;19.45;10.88;;;23.30;99.90;;;;;;5038969;28;20044;-79
2022/06/22 04:53:02;;;;;;;17.15;9.70;;;23.10;99.90;;;;;;5054097;28;20047;-77
2022/06/22 04:55:50;;;;;;;14.52;10.23;;;23.30;99.90;;;;;;5053674;28;20111;-78
2022/06/22 04:58:51;;;;;;;17.92;9.00;;;23.40;99.90;;;;;;5053766;28;20091;-79
2022/06/22 05:01:49;;;;;;;15.57;9.57;;;23.50;99.90;;;;;;5053589;28;20059;-82
2022/06/22 05:04:41;;;;;;;19.20;10.02;;;23.60;99.90;;;;;;5053822;28;20090;-80
2022/06/22 05:07:50;;;;;;;14.70;9.80;;;23.90;99.90;;;;;;5053631;28;20533;-78
2022/06/22 05:10:35;;;;;;;14.57;9.88;;;23.30;99.90;;;;;;5038613;28;20052;-80
2022/06/22 05:13:26;;;;;;;14.30;9.10;;;23.10;99.90;;;;;;5052951;28;20040;-80
2022/06/22 05:16:17;;;;;;;19.15;9.13;;;23.00;99.90;;;;;;5053697;28;20443;-78
2022/06/22 05:19:03;;;;;;;15.30;9.05;;;23.30;99.90;;;;;;5053552;28;20051;-80
2022/06/22 05:21:48;;;;;;;15.18;9.10;;;23.50;99.90;;;;;;5039917;28;20064;-79
2022/06/22 05:24:37;;;;;;;14.93;9.73;;;23.30;99.90;;;;;;5033748;28;20573;-77
2022/06/22 05:27:30;;;;;;;15.40;8.40;;;23.20;99.90;;;;;;5032947;28;20416;-77
2022/06/22 05:30:17;;;;;;;12.85;9.30;;;23.40;99.90;;;;;;5033703;28;20144;-81
2022/06/22 05:33:08;;;;;;;14.88;8.90;;;23.40;99.90;;;;;;5018435;28;20052;-79
2022/06/22 05:36:01;;;;;;;16.85;9.27;;;23.50;99.90;;;;;;5018472;28;20087;-80
2022/06/22 05:38:57;;;;;;;24.10;9.27;;;23.50;99.90;;;;;;5033113;28;20171;-79
2022/06/22 05:41:46;;;;;;;14.35;8.60;;;23.80;99.90;;;;;;5032700;28;20258;-81
2022/06/22 05:44:32;;;;;;;13.45;8.88;;;23.80;99.90;;;;;;5033147;28;20153;-79
2022/06/22 05:47:30;;;;;;;15.57;10.07;;;23.80;99.90;;;;;;5033272;28;20052;-78
2022/06/22 05:50:30;;;;;;;14.90;9.90;;;23.90;99.90;;;;;;5018289;28;20396;-80
2022/06/22 05:53:29;;;;;;;15.40;9.82;;;24.00;99.90;;;;;;5033178;28;20202;-78
2022/06/22 05:56:21;;;;;;;15.80;9.32;;;24.20;99.90;;;;;;5032732;28;20048;-77
2022/06/22 05:59:23;;;;;;;20.00;8.95;;;24.30;99.90;;;;;;5033198;28;20043;-80
2022/06/22 06:02:31;;;;;;;14.43;9.77;;;24.50;99.90;;;;;;5032899;28;20056;-78
2022/06/22 06:05:27;;;;;;;14.73;10.13;;;24.60;99.90;;;;;;5032948;28;20510;-78
2022/06/22 06:08:35;;;;;;;15.25;10.18;;;24.50;99.90;;;;;;5032831;28;20491;-79
2022/06/22 06:11:27;;;;;;;17.20;9.75;;;24.50;99.90;;;;;;5032443;28;20381;-79
2022/06/22 06:14:34;;;;;;;15.82;9.68;;;24.70;99.90;;;;;;5032355;28;20060;-79
2022/06/22 06:17:23;;;;;;;14.93;9.98;;;24.80;99.90;;;;;;5032204;28;20049;-79
2022/06/22 06:20:39;;;;;;;15.67;10.03;;;24.80;99.90;;;;;;5032659;28;20052;-77
2022/06/22 06:23:27;;;;;;;19.13;9.98;;;24.70;99.90;;;;;;5012537;28;20266;-77
2022/06/22 06:29:41;;;;;;;13.57;9.80;;;24.80;99.90;;;;;;5012492;28;20049;-81
2022/06/22 06:32:46;;;;;;;15.48;10.00;;;24.90;99.90;;;;;;4998001;28;20056;-83
2022/06/22 06:35:39;;;;;;;17.05;10.20;;;24.90;99.90;;;;;;5012466;28;20045;-83
2022/06/22 06:38:38;;;;;;;15.85;9.88;;;25.00;99.90;;;;;;5011366;28;20060;-80
2022/06/22 06:41:39;;;;;;;12.02;9.07;;;25.00;99.90;;;;;;4997640;28;20044;-83
2022/06/22 06:44:25;;;;;;;12.10;8.65;;;25.10;99.90;;;;;;4997953;28;20135;-80
2022/06/22 06:47:20;;;;;;;15.25;9.43;;;25.20;99.90;;;;;;4997965;28;20080;-78
2022/06/22 06:50:22;;;;;;;16.52;9.63;;;25.30;99.90;;;;;;4998750;28;20057;-81
2022/06/22 06:53:33;;;;;;;15.80;10.13;;;25.30;99.90;;;;;;5011692;28;20095;-79
2022/06/22 06:56:36;;;;;;;15.25;9.45;;;25.30;99.90;;;;;;5012486;28;20052;-82
2022/06/22 06:59:29;;;;;;;16.63;10.48;;;25.20;99.90;;;;;;5012134;28;20568;-81
2022/06/22 07:02:36;;;;;;;14.43;10.40;;;25.20;99.90;;;;;;5012470;28;20045;-78
2022/06/22 07:05:25;;;;;;;21.75;10.43;;;25.40;99.90;;;;;;5012338;28;20064;-82
2022/06/22 07:08:37;;;;;;;12.15;8.85;;;25.50;99.90;;;;;;5012078;28;20063;-82
2022/06/22 07:12:09;;;;;;;14.80;9.60;;;25.60;99.90;;;;;;4992282;28;20397;-81
2022/06/22 07:14:58;;;;;;;14.98;9.13;;;25.50;99.90;;;;;;4992684;28;20089;-82
2022/06/22 07:17:47;;;;;;;17.98;9.07;;;25.70;99.90;;;;;;4992548;28;20497;-82
2022/06/22 07:20:40;;;;;;;13.48;9.45;;;25.70;99.90;;;;;;4992547;28;20370;-81
2022/06/22 07:23:52;;;;;;;13.90;8.57;;;25.80;99.90;;;;;;4992285;28;20045;-79
2022/06/22 07:27:09;;;;;;;10.32;8.10;;;25.90;99.90;;;;;;4992440;28;20045;-80
2022/06/22 07:30:03;;;;;;;13.50;8.10;;;26.00;99.90;;;;;;4975784;28;20162;-77
2022/06/22 07:32:58;;;;;;;13.68;9.13;;;25.90;99.90;;;;;;4992031;28;20057;-80
2022/06/22 07:35:56;;;;;;;13.07;8.85;;;25.90;99.90;;;;;;4992475;28;20050;-80
2022/06/22 07:39:08;;;;;;;15.82;9.15;;;26.10;99.90;;;;;;4996484;28;20045;-82
2022/06/22 07:41:54;;;;;;;14.50;8.30;;;26.30;99.90;;;;;;4981634;28;20386;-80
2022/06/22 07:44:42;;;;;;;12.65;8.05;;;26.20;99.90;;;;;;4996246;28;20157;-81
2022/06/22 07:47:36;;;;;;;15.63;8.25;;;26.20;99.90;;;;;;4981426;28;20386;-78
2022/06/22 07:50:28;;;;;;;13.70;8.38;;;26.30;99.90;;;;;;4981664;28;20068;-84
2022/06/22 07:53:34;;;;;;;13.88;8.50;;;26.30;99.90;;;;;;4981043;28;20042;-80
2022/06/22 07:56:47;;;;;;;13.93;8.23;;;26.20;99.90;;;;;;4995524;28;20058;-78
2022/06/22 07:59:58;;;;;;;22.33;16.98;;;26.30;99.90;;;;;;4980789;28;20046;-79
2022/06/22 08:03:18;;;;;;;30.00;21.40;;;26.30;99.90;;;;;;4995832;28;20190;-81
2022/06/22 08:06:39;;;;;;;20.00;10.80;;;26.40;99.90;;;;;;4961753;28;20790;-83
2022/06/22 08:10:02;;;;;;;46.70;33.22;;;26.40;99.90;;;;;;4971933;28;20049;-80
2022/06/22 08:13:03;;;;;;;61.17;42.15;;;26.50;99.90;;;;;;4978254;28;20494;-78
2022/06/22 08:16:02;;;;;;;40.05;28.50;;;26.60;99.90;;;;;;4995478;28;20053;-76
2022/06/22 08:18:48;;;;;;;54.40;35.17;;;26.80;99.90;;;;;;4995148;28;20053;-78
2022/06/22 08:21:48;;;;;;;20.65;14.93;;;26.80;99.90;;;;;;5002963;28;20389;-88
2022/06/22 08:25:02;;;;;;;19.15;10.30;;;26.90;99.90;;;;;;5014564;28;20137;-81
2022/06/22 08:28:03;;;;;;;12.40;9.23;;;27.10;99.90;;;;;;5002774;28;20517;-80
2022/06/22 08:30:53;;;;;;;14.65;10.73;;;26.90;99.90;;;;;;4999889;28;20603;-77
2022/06/22 08:33:44;;;;;;;12.75;8.15;;;26.80;99.90;;;;;;4999576;28;20056;-77
2022/06/22 08:36:38;;;;;;;18.52;10.00;;;26.90;99.90;;;;;;4993768;28;20197;-77
2022/06/22 08:39:34;;;;;;;12.48;8.73;;;27.00;99.90;;;;;;5005892;28;20128;-80
2022/06/22 08:42:21;;;;;;;17.00;9.00;;;27.10;99.90;;;;;;4994831;28;20449;-80
2022/06/22 08:45:33;;;;;;;17.17;8.77;;;27.20;99.90;;;;;;4995002;28;20053;-77
2022/06/22 08:48:31;;;;;;;15.43;7.57;;;27.10;99.90;;;;;;4974121;28;20185;-77
2022/06/22 08:52:00;;;;;;;28.05;22.85;;;27.00;99.90;;;;;;4994933;28;20049;-77
2022/06/22 08:55:24;;;;;;;34.08;23.55;;;27.10;99.90;;;;;;4994417;28;20128;-77
2022/06/22 08:58:49;;;;;;;15.63;9.60;;;27.20;99.90;;;;;;4994857;28;20048;-75
2022/06/22 09:02:00;;;;;;;13.35;8.05;;;27.40;99.90;;;;;;4994871;28;20069;-79
2022/06/22 09:05:28;;;;;;;11.38;6.43;;;27.20;99.90;;;;;;4994957;28;20049;-84
2022/06/22 09:08:23;;;;;;;16.33;9.00;;;27.30;99.90;;;;;;4994940;28;20125;-84
2022/06/22 09:11:27;;;;;;;11.45;7.68;;;27.50;99.90;;;;;;4993973;28;20406;-81
2022/06/22 09:14:42;;;;;;;11.75;6.72;;;27.40;99.90;;;;;;5006890;28;20044;-79
2022/06/22 09:17:43;;;;;;;13.05;7.47;;;27.60;99.90;;;;;;4994837;28;20093;-85
2022/06/22 09:20:42;;;;;;;13.60;7.68;;;27.80;99.90;;;;;;5012355;28;20053;-88
2022/06/22 09:23:40;;;;;;;10.95;8.02;;;27.80;99.90;;;;;;5010429;28;20116;-81
2022/06/22 09:26:54;;;;;;;10.98;7.70;;;28.10;99.90;;;;;;5001749;28;20161;-76
2022/06/22 09:29:58;;;;;;;28.83;21.10;;;28.00;99.90;;;;;;5023481;28;20394;-78
2022/06/22 09:33:32;;;;;;;47.20;35.42;;;28.10;99.90;;;;;;5032999;28;20044;-78
2022/06/22 09:36:21;;;;;;;13.02;8.48;;;28.20;99.90;;;;;;5033084;28;20044;-86
2022/06/22 09:39:16;;;;;;;11.25;6.80;;;28.10;99.90;;;;;;5033421;28;20045;-79
2022/06/22 09:42:30;;;;;;;12.90;6.60;;;28.20;99.80;;;;;;5010901;28;20389;-75
2022/06/22 09:45:36;;;;;;;9.55;7.38;;;28.40;99.90;;;;;;5007684;28;20056;-77
2022/06/22 09:48:37;;;;;;;12.40;6.68;;;28.60;98.50;;;;;;5013046;28;20164;-81
2022/06/22 09:51:41;;;;;;;11.57;6.63;;;28.50;97.90;;;;;;5014132;28;20136;-87
2022/06/22 09:58:15;;;;;;;11.13;7.28;;;28.70;99.00;;;;;;5010363;28;20040;-79
2022/06/22 10:01:31;;;;;;;10.55;6.50;;;28.70;97.30;;;;;;5010902;28;20045;-80
2022/06/22 10:04:44;;;;;;;10.15;6.90;;;29.10;97.00;;;;;;5005830;28;20189;-89
2022/06/22 10:07:56;;;;;;;24.90;20.67;;;29.20;97.90;;;;;;5012175;28;20056;-78
2022/06/22 10:10:58;;;;;;;12.98;9.50;;;29.40;95.90;;;;;;5009774;28;20048;-80
2022/06/22 10:14:09;;;;;;;11.50;7.47;;;29.10;96.30;;;;;;4996229;28;20048;-87
2022/06/22 10:16:58;;;;;;;11.95;7.88;;;29.30;95.80;;;;;;4980082;28;20048;-81
2022/06/22 10:19:56;;;;;;;14.55;7.35;;;29.40;95.50;;;;;;5012714;28;20058;-85
2022/06/22 10:22:54;;;;;;;10.23;6.95;;;29.30;95.90;;;;;;5010852;28;20048;-83
2022/06/22 10:25:46;;;;;;;89.28;70.95;;;29.60;95.60;;;;;;5001069;28;20096;-83
2022/06/22 10:28:54;;;;;;;126.80;94.20;;;29.70;95.50;;;;;;5000615;28;20033;-80
2022/06/22 10:32:00;;;;;;;17.20;13.48;;;29.60;95.60;;;;;;5012816;28;20057;-83
2022/06/22 10:35:22;;;;;;;21.58;17.15;;;29.60;94.20;;;;;;5012554;28;20504;-80
2022/06/22 10:38:16;;;;;;;15.45;7.47;;;29.90;94.00;;;;;;4900302;29;20126;-82
2022/06/22 10:47:55;;;;;;;28.33;20.80;;;29.90;93.10;;;;;;5010042;28;20428;-79
2022/06/22 10:50:57;;;;;;;48.45;33.75;;;30.40;92.90;;;;;;5008567;28;20060;-79
2022/06/22 10:54:28;;;;;;;16.00;9.88;;;30.40;93.00;;;;;;5010895;28;20100;-80
2022/06/22 10:57:29;;;;;;;10.57;7.13;;;30.50;92.20;;;;;;5011112;28;20041;-81
2022/06/22 11:00:34;;;;;;;13.57;7.45;;;30.60;92.10;;;;;;5010009;28;20060;-80
2022/06/22 11:03:51;;;;;;;13.25;7.00;;;30.60;91.50;;;;;;4996956;28;20097;-85
2022/06/22 11:07:09;;;;;;;16.73;9.63;;;30.80;91.20;;;;;;5011572;28;20045;-79
2022/06/22 11:10:27;;;;;;;55.15;29.20;;;30.70;91.40;;;;;;4977342;28;20050;-80
2022/06/22 11:13:38;;;;;;;26.90;14.13;;;30.40;91.30;;;;;;4988726;28;20104;-79
2022/06/22 11:16:48;;;;;;;19.23;10.75;;;30.70;91.40;;;;;;4997367;28;20049;-85
2022/06/22 11:20:17;;;;;;;14.88;8.05;;;31.10;90.50;;;;;;4996447;28;20139;-82
2022/06/22 11:23:11;;;;;;;18.77;9.60;;;31.50;85.70;;;;;;4977315;28;20182;-82
2022/06/22 11:33:01;;;;;;;19.88;14.20;;;31.80;82.40;;;;;;5008846;28;20524;-87
2022/06/22 11:36:12;;;;;;;32.53;21.92;;;31.90;84.00;;;;;;4997844;28;20072;-85
2022/06/22 11:39:16;;;;;;;10.77;6.78;;;31.40;86.50;;;;;;4996649;28;20168;-79
2022/06/22 11:42:16;;;;;;;27.63;12.07;;;31.60;84.70;;;;;;4997109;28;20641;-80
2022/06/22 11:48:45;;;;;;;13.80;7.75;;;30.90;91.30;;;;;;5036637;23;20055;-83
2022/06/22 11:51:43;;;;;;;15.40;7.03;;;30.90;88.50;;;;;;5054777;28;20553;-84
2022/06/22 11:55:03;;;;;;;22.67;10.27;;;31.00;89.00;;;;;;5043955;28;20495;-78
2022/06/22 11:58:17;;;;;;;;;;;31.00;89.10;;;;;;5058844;28;20515;-76
2022/06/22 12:01:26;;;;;;;30.35;10.18;;;30.70;90.80;;;;;;5060281;28;19924;-77
2022/06/22 12:04:24;;;;;;;17.23;8.68;;;30.60;92.20;;;;;;5066880;28;20143;-80
2022/06/22 12:07:23;;;;;;;14.40;7.03;;;30.80;90.10;;;;;;5043685;28;20043;-80
2022/06/22 12:11:03;;;;;;;12.70;8.43;;;31.00;87.40;;;;;;5058927;28;20396;-79
2022/06/22 12:18:30;;;;;;;25.48;17.50;;;31.10;84.60;;;;;;5049204;28;20086;-79
2022/06/22 12:21:50;;;;;;;32.88;26.48;;;31.20;87.10;;;;;;5050335;28;20143;-80
2022/06/22 12:24:52;;;;;;;16.42;9.07;;;31.20;85.30;;;;;;5048721;28;20058;-80
2022/06/22 12:27:41;;;;;;;13.70;7.00;;;31.20;83.50;;;;;;5062047;28;20054;-77
2022/06/22 12:30:35;;;;;;;12.15;6.60;;;31.30;84.80;;;;;;5048991;28;20412;-87
2022/06/22 12:33:28;;;;;;;25.42;7.22;;;31.30;86.70;;;;;;5054184;28;20130;-82
2022/06/22 12:36:27;;;;;;;38.17;28.50;;;31.10;89.20;;;;;;5039545;28;20090;-80
2022/06/22 12:39:39;;;;;;;26.25;12.82;;;30.80;90.80;;;;;;5055498;28;20131;-85
2022/06/22 12:42:55;;;;;;;15.20;8.05;;;30.50;91.30;;;;;;5038686;28;20052;-84
2022/06/22 12:46:26;;;;;;;16.75;7.70;;;30.50;92.50;;;;;;5055283;28;20044;-84
2022/06/22 12:49:39;;;;;;;21.38;7.40;;;30.60;92.80;;;;;;5050800;28;20100;-87
2022/06/22 12:52:49;;;;;;;14.88;7.30;;;30.90;93.00;;;;;;5055627;28;20510;-88
2022/06/22 12:55:42;;;;;;;16.38;8.55;;;31.30;93.00;;;;;;5054872;28;20544;-88
2022/06/22 12:58:36;;;;;;;14.90;7.40;;;31.60;92.60;;;;;;5040006;28;20055;-87
2022/06/22 13:01:23;;;;;;;14.15;7.05;;;31.80;91.00;;;;;;5040263;28;20174;-86
2022/06/22 13:04:17;;;;;;;18.48;7.38;;;31.90;91.00;;;;;;5056180;28;20051;-91
2022/06/22 13:07:14;;;;;;;12.82;6.72;;;32.30;91.20;;;;;;5054468;28;20055;-88
2022/06/22 13:10:00;;;;;;;16.65;7.50;;;32.20;90.60;;;;;;5054956;28;20653;-91
2022/06/22 13:12:49;;;;;;;15.32;7.20;;;31.90;90.90;;;;;;5054809;28;20053;-82
2022/06/22 13:15:42;;;;;;;11.82;6.80;;;31.50;90.50;;;;;;5054978;28;20060;-87
2022/06/22 13:19:00;;;;;;;10.13;5.57;;;31.10;91.70;;;;;;5052232;28;20175;-84
2022/06/22 13:22:11;;;;;;;14.13;6.65;;;30.20;92.30;;;;;;5036831;28;20131;-83
2022/06/22 13:25:25;;;;;;;11.40;5.45;;;29.80;93.30;;;;;;5039898;28;20051;-82
2022/06/22 13:28:45;;;;;;;13.25;6.03;;;29.30;93.20;;;;;;5041976;28;20151;-90
2022/06/22 13:31:36;;;;;;;28.77;20.58;;;28.90;93.80;;;;;;5039138;28;20039;-81
2022/06/22 13:34:30;;;;;;;11.00;7.10;;;28.80;94.60;;;;;;5054631;28;20051;-90
2022/06/22 13:37:23;;;;;;;15.40;6.05;;;28.50;94.70;;;;;;5053917;28;20043;-86
2022/06/22 13:40:26;;;;;;;10.55;5.72;;;28.30;94.50;;;;;;5038078;28;20056;-80
2022/06/22 13:43:24;;;;;;;12.38;5.53;;;28.20;95.30;;;;;;5038448;28;20048;-79
2022/06/22 13:46:51;;;;;;;11.10;7.28;;;28.20;95.60;;;;;;5052670;28;20170;-82
2022/06/22 13:50:18;;;;;;;12.73;5.97;;;28.30;95.50;;;;;;5037637;28;20141;-81
2022/06/22 13:53:43;;;;;;;13.30;5.68;;;28.60;95.30;;;;;;5031716;28;20365;-77
2022/06/22 13:57:12;;;;;;;42.28;30.65;;;29.00;94.40;;;;;;4997912;28;20120;-80
2022/06/22 14:00:17;;;;;;;13.73;7.00;;;29.20;93.70;;;;;;5002175;28;20151;-77
2022/06/22 14:03:08;;;;;;;12.52;5.75;;;29.60;93.40;;;;;;5012546;28;20162;-75
2022/06/22 14:06:11;;;;;;;49.88;32.67;;;30.00;93.00;;;;;;5012853;28;20061;-76
2022/06/22 14:09:03;;;;;;;28.23;19.00;;;30.40;92.30;;;;;;5012741;28;20052;-76
2022/06/22 14:12:04;;;;;;;17.73;11.75;;;30.70;92.30;;;;;;5013225;28;20044;-76
2022/06/22 14:15:17;;;;;;;14.30;7.55;;;30.70;92.00;;;;;;5012619;28;20092;-78
2022/06/22 14:18:37;;;;;;;13.52;7.20;;;30.50;91.90;;;;;;5012991;28;20045;-79
2022/06/22 14:21:38;;;;;;;14.25;5.82;;;30.20;92.30;;;;;;5002828;28;20064;-82
2022/06/22 14:24:41;;;;;;;11.27;6.70;;;30.10;92.30;;;;;;5017441;28;20056;-80
2022/06/22 14:28:00;;;;;;;9.35;5.95;;;30.20;92.30;;;;;;5032919;28;20048;-81
2022/06/22 14:31:09;;;;;;;14.85;6.18;;;30.20;92.30;;;;;;5032472;28;20056;-79
2022/06/22 14:34:19;;;;;;;12.38;6.18;;;30.10;92.10;;;;;;5017154;28;20044;-80
2022/06/22 14:37:26;;;;;;;13.57;5.60;;;30.10;92.70;;;;;;5031278;28;20053;-81
2022/06/22 14:40:30;;;;;;;8.25;5.50;;;30.10;91.90;;;;;;5016392;28;20106;-82
2022/06/22 14:43:34;;;;;;;14.57;6.13;;;30.00;91.60;;;;;;5030686;28;20111;-79
2022/06/22 14:46:35;;;;;;;10.05;5.55;;;30.00;92.10;;;;;;5029909;28;20520;-78
2022/06/22 14:50:02;;;;;;;10.55;5.55;;;30.50;92.40;;;;;;5031942;28;20159;-79
2022/06/22 14:53:05;;;;;;;12.88;6.28;;;30.60;91.40;;;;;;5051020;28;20048;-84
2022/06/22 14:56:18;;;;;;;10.48;6.22;;;30.60;91.50;;;;;;5054590;28;20047;-79
2022/06/22 14:59:28;;;;;;;134.60;94.05;;;30.80;91.20;;;;;;5037211;28;20523;-82
2022/06/22 15:02:18;;;;;;;;;;;30.60;91.20;;;;;;5038539;28;20056;-80
2022/06/22 15:05:17;;;;;;;;;;;30.20;91.90;;;;;;5051571;28;19931;-83
2022/06/22 15:08:30;;;;;;;19.40;12.75;;;30.00;92.30;;;;;;5052783;28;20015;-79
2022/06/22 15:15:31;;;;;;;15.50;9.93;;;29.60;92.50;;;;;;5031786;28;20156;-81
2022/06/22 15:18:36;;;;;;;14.95;10.07;;;29.60;92.70;;;;;;5023141;28;20052;-80
2022/06/22 15:21:38;;;;;;;16.45;9.10;;;29.50;92.90;;;;;;5016581;28;20048;-79
2022/06/22 15:25:12;;;;;;;19.25;10.38;;;29.50;92.80;;;;;;5032610;28;20492;-81
2022/06/22 15:28:34;;;;;;;13.50;7.72;;;29.50;93.20;;;;;;5031952;28;20520;-79
2022/06/22 15:31:27;;;;;;;10.65;7.20;;;29.50;93.30;;;;;;5028176;28;20404;-79
2022/06/22 15:34:19;;;;;;;22.92;9.40;;;29.40;93.50;;;;;;5017028;28;20060;-78
2022/06/22 15:37:17;;;;;;;21.85;9.98;;;29.40;93.40;;;;;;5031338;28;20124;-82
2022/06/22 15:40:16;;;;;;;13.43;7.53;;;29.50;93.50;;;;;;5016552;28;20071;-78
2022/06/22 15:43:24;;;;;;;19.27;10.60;;;29.40;93.10;;;;;;5031438;28;20040;-78
2022/06/22 15:46:43;;;;;;;12.25;6.63;;;29.30;93.90;;;;;;5017629;28;20060;-80
2022/06/22 15:49:44;;;;;;;11.45;6.65;;;29.30;93.50;;;;;;5042790;28;20044;-82
2022/06/22 15:52:42;;;;;;;15.15;8.20;;;29.30;93.40;;;;;;5036260;28;20146;-78
2022/06/22 15:55:40;;;;;;;14.13;5.93;;;29.30;94.10;;;;;;5051264;28;20420;-81
2022/06/22 15:58:31;;;;;;;11.82;7.30;;;29.30;93.60;;;;;;5054170;28;20055;-82
2022/06/22 16:01:34;;;;;;;16.95;7.82;;;29.30;94.20;;;;;;5040003;28;20392;-81
2022/06/22 16:04:30;;;;;;;16.70;9.50;;;29.40;94.00;;;;;;5055427;28;20376;-84
2022/06/22 16:07:38;;;;;;;34.30;22.60;;;29.50;93.90;;;;;;5040549;28;20051;-83
2022/06/22 16:10:39;;;;;;;77.38;55.88;;;29.70;94.00;;;;;;5055155;28;20147;-84
2022/06/22 16:13:28;;;;;;;17.02;9.88;;;29.90;93.70;;;;;;5053731;28;20098;-82
2022/06/22 16:16:35;;;;;;;10.25;6.55;;;30.30;93.00;;;;;;5029394;28;20052;-83